sensor_id;sensor_type;location;lat;lon;timestamp;temperature;humidity
5346;DHT22;2695;49.444;11.054;2022-10-22T00:00:15;14.60;99.90
5346;DHT22;2695;49.444;11.054;2022-10-22T00:02:50;14.60;99.90
5346;DHT22;2695;49.444;11.054;2022-10-22T00:05:18;14.60;99.90
5346;DHT22;2695;49.444;11.054;2022-10-22T00:07:46;14.60;99.90
5346;DHT22;2695;49.444;11.054;2022-10-22T00:10:14;14.40;99.90
5346;DHT22;2695;49.444;11.054;2022-10-22T00:12:44;14.50;99.90
5346;DHT22;2695;49.444;11.054;2022-10-22T00:15:12;14.40;99.90
5346;DHT22;2695;49.444;11.054;2022-10-22T00:17:41;14.40;99.90
5346;DHT22;2695;49.444;11.054;2022-10-22T00:20:10;14.30;99.90
5346;DHT22;2695;49.444;11.054;2022-10-22T00:22:41;14.30;99.90
5346;DHT22;2695;49.444;11.054;2022-10-22T00:25:09;14.30;99.90
5346;DHT22;2695;49.444;11.054;2022-10-22T00:27:49;14.30;99.90
5346;DHT22;2695;49.444;11.054;2022-10-22T00:30:17;14.30;99.90
5346;DHT22;2695;49.444;11.054;2022-10-22T00:32:45;14.20;99.90
5346;DHT22;2695;49.444;11.054;2022-10-22T00:35:14;14.20;99.90
5346;DHT22;2695;49.444;11.054;2022-10-22T00:37:47;14.20;99.90
5346;DHT22;2695;49.444;11.054;2022-10-22T00:40:16;14.20;99.90
5346;DHT22;2695;49.444;11.054;2022-10-22T00:42:51;14.20;99.90
5346;DHT22;2695;49.444;11.054;2022-10-22T00:45:27;14.30;99.90
5346;DHT22;2695;49.444;11.054;2022-10-22T00:48:00;14.30;99.90
5346;DHT22;2695;49.444;11.054;2022-10-22T00:50:33;14.20;99.90
5346;DHT22;2695;49.444;11.054;2022-10-22T00:53:28;14.20;99.90
5346;DHT22;2695;49.444;11.054;2022-10-22T00:55:58;14.20;99.90
5346;DHT22;2695;49.444;11.054;2022-10-22T00:58:38;14.20;99.90
5346;DHT22;2695;49.444;11.054;2022-10-22T01:01:17;14.20;99.90
5346;DHT22;2695;49.444;11.054;2022-10-22T01:03:52;14.10;99.90
5346;DHT22;2695;49.444;11.054;2022-10-22T01:06:24;14.20;99.90
5346;DHT22;2695;49.444;11.054;2022-10-22T01:09:02;14.10;99.90
5346;DHT22;2695;49.444;11.054;2022-10-22T01:11:38;14.10;99.90
5346;DHT22;2695;49.444;11.054;2022-10-22T01:14:30;14.10;99.90
5346;DHT22;2695;49.444;11.054;2022-10-22T01:17:06;14.10;99.90
5346;DHT22;2695;49.444;11.054;2022-10-22T01:19:45;14.10;99.90
5346;DHT22;2695;49.444;11.054;2022-10-22T01:22:21;14.20;99.90
5346;DHT22;2695;49.444;11.054;2022-10-22T01:24:59;14.10;99.90
5346;DHT22;2695;49.444;11.054;2022-10-22T01:27:44;14.20;99.90
5346;DHT22;2695;49.444;11.054;2022-10-22T01:30:20;14.10;99.90
5346;DHT22;2695;49.444;11.054;2022-10-22T01:32:50;14.10;99.90
5346;DHT22;2695;49.444;11.054;2022-10-22T01:35:22;14.10;99.90
5346;DHT22;2695;49.444;11.054;2022-10-22T01:37:55;14.10;99.90
5346;DHT22;2695;49.444;11.054;2022-10-22T01:40:26;14.10;99.90
5346;DHT22;2695;49.444;11.054;2022-10-22T01:42:56;14.10;99.90
5346;DHT22;2695;49.444;11.054;2022-10-22T01:45:29;14.00;99.90
5346;DHT22;2695;49.444;11.054;2022-10-22T01:48:08;14.00;99.90
5346;DHT22;2695;49.444;11.054;2022-10-22T01:50:53;14.10;99.90
5346;DHT22;2695;49.444;11.054;2022-10-22T01:53:29;14.00;99.90
5346;DHT22;2695;49.444;11.054;2022-10-22T01:56:09;13.90;99.90
5346;DHT22;2695;49.444;11.054;2022-10-22T01:58:47;13.90;99.90
5346;DHT22;2695;49.444;11.054;2022-10-22T02:01:23;13.90;99.90
5346;DHT22;2695;49.444;11.054;2022-10-22T02:03:58;13.90;99.90
5346;DHT22;2695;49.444;11.054;2022-10-22T02:06:29;13.90;99.90
5346;DHT22;2695;49.444;11.054;2022-10-22T02:09:00;13.80;99.90
5346;DHT22;2695;49.444;11.054;2022-10-22T02:11:29;13.80;99.90
5346;DHT22;2695;49.444;11.054;2022-10-22T02:14:00;13.80;99.90
5346;DHT22;2695;49.444;11.054;2022-10-22T02:16:34;13.80;99.90
5346;DHT22;2695;49.444;11.054;2022-10-22T02:19:06;13.80;99.90
5346;DHT22;2695;49.444;11.054;2022-10-22T02:21:37;13.80;99.90
5346;DHT22;2695;49.444;11.054;2022-10-22T02:24:06;13.80;99.90
5346;DHT22;2695;49.444;11.054;2022-10-22T02:26:38;13.80;99.90
5346;DHT22;2695;49.444;11.054;2022-10-22T02:29:12;13.80;99.90
5346;DHT22;2695;49.444;11.054;2022-10-22T02:31:44;13.70;99.90
5346;DHT22;2695;49.444;11.054;2022-10-22T02:34:15;13.70;99.90
5346;DHT22;2695;49.444;11.054;2022-10-22T02:36:46;13.70;99.90
5346;DHT22;2695;49.444;11.054;2022-10-22T02:39:16;13.70;99.90
5346;DHT22;2695;49.444;11.054;2022-10-22T02:41:46;13.70;99.90
5346;DHT22;2695;49.444;11.054;2022-10-22T02:44:14;13.60;99.90
5346;DHT22;2695;49.444;11.054;2022-10-22T02:46:43;13.60;99.90
5346;DHT22;2695;49.444;11.054;2022-10-22T02:49:12;13.60;99.90
5346;DHT22;2695;49.444;11.054;2022-10-22T02:51:40;13.60;99.90
5346;DHT22;2695;49.444;11.054;2022-10-22T02:54:08;13.60;99.90
5346;DHT22;2695;49.444;11.054;2022-10-22T02:56:36;13.60;99.90
5346;DHT22;2695;49.444;11.054;2022-10-22T02:59:04;13.60;99.90
5346;DHT22;2695;49.444;11.054;2022-10-22T03:01:32;13.60;99.90
5346;DHT22;2695;49.444;11.054;2022-10-22T03:04:02;13.60;99.90
5346;DHT22;2695;49.444;11.054;2022-10-22T03:06:30;13.60;99.90
5346;DHT22;2695;49.444;11.054;2022-10-22T03:08:58;13.60;99.90
5346;DHT22;2695;49.444;11.054;2022-10-22T03:11:26;13.50;99.90
5346;DHT22;2695;49.444;11.054;2022-10-22T03:13:54;13.50;99.90
5346;DHT22;2695;49.444;11.054;2022-10-22T03:16:22;13.60;99.90
5346;DHT22;2695;49.444;11.054;2022-10-22T03:18:50;13.60;99.90
5346;DHT22;2695;49.444;11.054;2022-10-22T03:21:28;13.60;99.90
5346;DHT22;2695;49.444;11.054;2022-10-22T03:23:59;13.60;99.90
5346;DHT22;2695;49.444;11.054;2022-10-22T03:26:28;13.60;99.90
5346;DHT22;2695;49.444;11.054;2022-10-22T03:28:56;13.60;99.90
5346;DHT22;2695;49.444;11.054;2022-10-22T03:31:26;13.60;99.90
5346;DHT22;2695;49.444;11.054;2022-10-22T03:33:54;13.60;99.90
5346;DHT22;2695;49.444;11.054;2022-10-22T03:36:24;13.60;99.90
5346;DHT22;2695;49.444;11.054;2022-10-22T03:38:53;13.60;99.90
5346;DHT22;2695;49.444;11.054;2022-10-22T03:41:21;13.60;99.90
5346;DHT22;2695;49.444;11.054;2022-10-22T03:43:49;13.70;99.90
5346;DHT22;2695;49.444;11.054;2022-10-22T03:46:19;13.70;99.90
5346;DHT22;2695;49.444;11.054;2022-10-22T03:48:47;13.60;99.90
5346;DHT22;2695;49.444;11.054;2022-10-22T03:51:15;13.60;99.90
5346;DHT22;2695;49.444;11.054;2022-10-22T03:53:44;13.60;99.90
5346;DHT22;2695;49.444;11.054;2022-10-22T03:56:12;13.70;99.90
5346;DHT22;2695;49.444;11.054;2022-10-22T03:58:41;13.70;99.90
5346;DHT22;2695;49.444;11.054;2022-10-22T04:01:10;13.60;99.90
5346;DHT22;2695;49.444;11.054;2022-10-22T04:03:39;13.70;99.90
5346;DHT22;2695;49.444;11.054;2022-10-22T04:06:09;13.60;99.90
5346;DHT22;2695;49.444;11.054;2022-10-22T04:08:38;13.60;99.90
5346;DHT22;2695;49.444;11.054;2022-10-22T04:11:08;13.60;99.90
5346;DHT22;2695;49.444;11.054;2022-10-22T04:13:36;13.60;99.90
5346;DHT22;2695;49.444;11.054;2022-10-22T04:16:09;13.60;99.90
5346;DHT22;2695;49.444;11.054;2022-10-22T04:18:38;13.60;99.90
5346;DHT22;2695;49.444;11.054;2022-10-22T04:21:07;13.60;99.90
5346;DHT22;2695;49.444;11.054;2022-10-22T04:23:36;13.70;99.90
5346;DHT22;2695;49.444;11.054;2022-10-22T04:26:07;13.70;99.90
5346;DHT22;2695;49.444;11.054;2022-10-22T04:28:35;13.70;99.90
5346;DHT22;2695;49.444;11.054;2022-10-22T04:31:07;13.70;99.90
5346;DHT22;2695;49.444;11.054;2022-10-22T04:33:35;13.70;99.90
5346;DHT22;2695;49.444;11.054;2022-10-22T04:36:07;13.70;99.90
5346;DHT22;2695;49.444;11.054;2022-10-22T04:38:35;13.70;99.90
5346;DHT22;2695;49.444;11.054;2022-10-22T04:41:12;13.70;99.90
5346;DHT22;2695;49.444;11.054;2022-10-22T04:43:41;13.70;99.90
5346;DHT22;2695;49.444;11.054;2022-10-22T04:46:11;13.70;99.90
5346;DHT22;2695;49.444;11.054;2022-10-22T04:48:40;13.70;99.90
5346;DHT22;2695;49.444;11.054;2022-10-22T04:51:11;13.70;99.90
5346;DHT22;2695;49.444;11.054;2022-10-22T04:53:40;13.70;99.90
5346;DHT22;2695;49.444;11.054;2022-10-22T04:56:12;13.80;99.90
5346;DHT22;2695;49.444;11.054;2022-10-22T04:58:42;13.80;99.90
5346;DHT22;2695;49.444;11.054;2022-10-22T05:01:12;13.70;99.90
5346;DHT22;2695;49.444;11.054;2022-10-22T05:03:41;13.80;99.90
5346;DHT22;2695;49.444;11.054;2022-10-22T05:06:09;13.70;99.90
5346;DHT22;2695;49.444;11.054;2022-10-22T05:08:39;13.80;99.90
5346;DHT22;2695;49.444;11.054;2022-10-22T05:11:13;13.80;99.90
5346;DHT22;2695;49.444;11.054;2022-10-22T05:13:41;13.70;99.90
5346;DHT22;2695;49.444;11.054;2022-10-22T05:16:10;13.80;99.90
5346;DHT22;2695;49.444;11.054;2022-10-22T05:18:41;13.80;99.90
5346;DHT22;2695;49.444;11.054;2022-10-22T05:21:11;13.70;99.90
5346;DHT22;2695;49.444;11.054;2022-10-22T05:23:40;13.70;99.90
5346;DHT22;2695;49.444;11.054;2022-10-22T05:26:10;13.70;99.90
5346;DHT22;2695;49.444;11.054;2022-10-22T05:28:40;13.70;99.90
5346;DHT22;2695;49.444;11.054;2022-10-22T05:31:10;13.70;99.90
5346;DHT22;2695;49.444;11.054;2022-10-22T05:33:39;13.60;99.90
5346;DHT22;2695;49.444;11.054;2022-10-22T05:36:11;13.60;99.90
5346;DHT22;2695;49.444;11.054;2022-10-22T05:38:39;13.60;99.90
5346;DHT22;2695;49.444;11.054;2022-10-22T05:41:09;13.50;99.90
5346;DHT22;2695;49.444;11.054;2022-10-22T05:43:38;13.40;99.90
5346;DHT22;2695;49.444;11.054;2022-10-22T05:46:09;13.40;99.90
5346;DHT22;2695;49.444;11.054;2022-10-22T05:48:37;13.30;99.90
5346;DHT22;2695;49.444;11.054;2022-10-22T05:51:07;13.30;99.90
5346;DHT22;2695;49.444;11.054;2022-10-22T05:53:38;13.30;99.90
5346;DHT22;2695;49.444;11.054;2022-10-22T05:56:08;13.30;99.90
5346;DHT22;2695;49.444;11.054;2022-10-22T05:58:36;13.30;99.90
5346;DHT22;2695;49.444;11.054;2022-10-22T06:01:08;13.20;99.90
5346;DHT22;2695;49.444;11.054;2022-10-22T06:03:38;13.20;99.90
5346;DHT22;2695;49.444;11.054;2022-10-22T06:06:14;13.20;99.90
5346;DHT22;2695;49.444;11.054;2022-10-22T06:08:44;13.20;99.90
5346;DHT22;2695;49.444;11.054;2022-10-22T06:11:13;13.20;99.90
5346;DHT22;2695;49.444;11.054;2022-10-22T06:13:41;13.30;99.90
5346;DHT22;2695;49.444;11.054;2022-10-22T06:16:10;13.20;99.90
5346;DHT22;2695;49.444;11.054;2022-10-22T06:18:39;13.20;99.90
5346;DHT22;2695;49.444;11.054;2022-10-22T06:21:09;13.20;99.90
5346;DHT22;2695;49.444;11.054;2022-10-22T06:23:38;13.30;99.90
5346;DHT22;2695;49.444;11.054;2022-10-22T06:26:08;13.40;99.90
5346;DHT22;2695;49.444;11.054;2022-10-22T06:28:37;13.40;99.90
5346;DHT22;2695;49.444;11.054;2022-10-22T06:31:06;13.40;99.90
5346;DHT22;2695;49.444;11.054;2022-10-22T06:33:35;13.40;99.90
5346;DHT22;2695;49.444;11.054;2022-10-22T06:36:09;13.40;99.90
5346;DHT22;2695;49.444;11.054;2022-10-22T06:38:38;13.50;99.90
5346;DHT22;2695;49.444;11.054;2022-10-22T06:41:08;13.50;99.90
5346;DHT22;2695;49.444;11.054;2022-10-22T06:43:37;13.60;99.90
5346;DHT22;2695;49.444;11.054;2022-10-22T06:46:08;13.70;99.90
5346;DHT22;2695;49.444;11.054;2022-10-22T06:48:47;13.60;99.90
5346;DHT22;2695;49.444;11.054;2022-10-22T06:51:16;13.70;99.90
5346;DHT22;2695;49.444;11.054;2022-10-22T06:53:44;13.70;99.90
5346;DHT22;2695;49.444;11.054;2022-10-22T06:56:13;13.70;99.90
5346;DHT22;2695;49.444;11.054;2022-10-22T06:58:42;13.80;99.90
5346;DHT22;2695;49.444;11.054;2022-10-22T07:01:12;13.90;99.90
5346;DHT22;2695;49.444;11.054;2022-10-22T07:03:41;13.90;99.90
5346;DHT22;2695;49.444;11.054;2022-10-22T07:06:12;14.00;99.90
5346;DHT22;2695;49.444;11.054;2022-10-22T07:08:41;14.00;99.90
5346;DHT22;2695;49.444;11.054;2022-10-22T07:11:14;14.10;99.90
5346;DHT22;2695;49.444;11.054;2022-10-22T07:13:43;14.20;99.90
5346;DHT22;2695;49.444;11.054;2022-10-22T07:16:12;14.20;99.90
5346;DHT22;2695;49.444;11.054;2022-10-22T07:18:40;14.30;99.90
5346;DHT22;2695;49.444;11.054;2022-10-22T07:21:11;14.40;99.90
5346;DHT22;2695;49.444;11.054;2022-10-22T07:23:40;14.40;99.90
5346;DHT22;2695;49.444;11.054;2022-10-22T07:26:08;14.40;99.90
5346;DHT22;2695;49.444;11.054;2022-10-22T07:28:37;14.50;99.90
5346;DHT22;2695;49.444;11.054;2022-10-22T07:31:06;14.60;99.90
5346;DHT22;2695;49.444;11.054;2022-10-22T07:33:35;14.70;99.90
5346;DHT22;2695;49.444;11.054;2022-10-22T07:36:05;14.80;99.90
5346;DHT22;2695;49.444;11.054;2022-10-22T07:38:35;15.10;99.90
5346;DHT22;2695;49.444;11.054;2022-10-22T07:41:04;15.30;99.90
5346;DHT22;2695;49.444;11.054;2022-10-22T07:43:32;15.70;99.90
5346;DHT22;2695;49.444;11.054;2022-10-22T07:46:00;16.00;99.90
5346;DHT22;2695;49.444;11.054;2022-10-22T07:48:28;16.40;99.90
5346;DHT22;2695;49.444;11.054;2022-10-22T07:50:56;16.70;99.90
5346;DHT22;2695;49.444;11.054;2022-10-22T07:53:26;17.40;99.90
5346;DHT22;2695;49.444;11.054;2022-10-22T07:55:56;18.30;99.90
5346;DHT22;2695;49.444;11.054;2022-10-22T07:58:24;19.30;99.90
5346;DHT22;2695;49.444;11.054;2022-10-22T08:00:54;20.40;99.90
5346;DHT22;2695;49.444;11.054;2022-10-22T08:03:23;21.20;99.90
5346;DHT22;2695;49.444;11.054;2022-10-22T08:05:52;21.20;99.90
5346;DHT22;2695;49.444;11.054;2022-10-22T08:08:21;20.90;99.90
5346;DHT22;2695;49.444;11.054;2022-10-22T08:10:59;20.70;99.90
5346;DHT22;2695;49.444;11.054;2022-10-22T08:13:28;20.80;99.90
5346;DHT22;2695;49.444;11.054;2022-10-22T08:15:58;20.80;99.90
5346;DHT22;2695;49.444;11.054;2022-10-22T08:18:27;20.80;99.90
5346;DHT22;2695;49.444;11.054;2022-10-22T08:20:55;20.80;99.90
5346;DHT22;2695;49.444;11.054;2022-10-22T08:23:24;20.50;99.90
5346;DHT22;2695;49.444;11.054;2022-10-22T08:25:56;20.10;99.90
5346;DHT22;2695;49.444;11.054;2022-10-22T08:28:25;19.90;99.90
5346;DHT22;2695;49.444;11.054;2022-10-22T08:30:55;19.80;99.90
5346;DHT22;2695;49.444;11.054;2022-10-22T08:33:23;19.70;99.90
5346;DHT22;2695;49.444;11.054;2022-10-22T08:35:52;19.70;99.90
5346;DHT22;2695;49.444;11.054;2022-10-22T08:38:21;20.10;99.90
5346;DHT22;2695;49.444;11.054;2022-10-22T08:40:53;20.90;99.90
5346;DHT22;2695;49.444;11.054;2022-10-22T08:49:21;22.70;99.90
5346;DHT22;2695;49.444;11.054;2022-10-22T08:51:51;22.80;99.90
5346;DHT22;2695;49.444;11.054;2022-10-22T08:54:27;23.20;99.90
5346;DHT22;2695;49.444;11.054;2022-10-22T08:57:21;23.40;99.90
5346;DHT22;2695;49.444;11.054;2022-10-22T08:59:56;23.60;99.90
5346;DHT22;2695;49.444;11.054;2022-10-22T09:02:36;23.70;99.90
5346;DHT22;2695;49.444;11.054;2022-10-22T09:08:57;24.00;99.90
5346;DHT22;2695;49.444;11.054;2022-10-22T09:11:28;23.90;99.90
5346;DHT22;2695;49.444;11.054;2022-10-22T09:13:58;23.60;99.90
5346;DHT22;2695;49.444;11.054;2022-10-22T09:20:10;23.80;99.90
5346;DHT22;2695;49.444;11.054;2022-10-22T09:22:45;24.40;99.90
5346;DHT22;2695;49.444;11.054;2022-10-22T09:25:19;25.40;99.90
5346;DHT22;2695;49.444;11.054;2022-10-22T09:27:49;26.20;99.90
5346;DHT22;2695;49.444;11.054;2022-10-22T09:30:22;26.70;99.60
5346;DHT22;2695;49.444;11.054;2022-10-22T09:32:55;26.90;98.00
5346;DHT22;2695;49.444;11.054;2022-10-22T09:35:26;26.90;97.70
5346;DHT22;2695;49.444;11.054;2022-10-22T09:37:55;26.30;97.90
5346;DHT22;2695;49.444;11.054;2022-10-22T09:40:23;26.00;98.70
5346;DHT22;2695;49.444;11.054;2022-10-22T09:42:52;26.10;98.50
5346;DHT22;2695;49.444;11.054;2022-10-22T09:45:24;26.30;97.80
5346;DHT22;2695;49.444;11.054;2022-10-22T09:48:10;25.90;97.60
5346;DHT22;2695;49.444;11.054;2022-10-22T09:50:43;25.10;98.70
5346;DHT22;2695;49.444;11.054;2022-10-22T09:53:21;24.40;99.70
5346;DHT22;2695;49.444;11.054;2022-10-22T09:55:56;23.90;99.90
5346;DHT22;2695;49.444;11.054;2022-10-22T09:58:25;23.60;99.90
5346;DHT22;2695;49.444;11.054;2022-10-22T10:00:57;23.30;99.90
5346;DHT22;2695;49.444;11.054;2022-10-22T10:03:31;23.00;99.90
5346;DHT22;2695;49.444;11.054;2022-10-22T10:06:15;23.10;99.90
5346;DHT22;2695;49.444;11.054;2022-10-22T10:08:50;24.20;99.90
5346;DHT22;2695;49.444;11.054;2022-10-22T10:11:28;25.30;99.20
5346;DHT22;2695;49.444;11.054;2022-10-22T10:14:15;25.80;98.50
5346;DHT22;2695;49.444;11.054;2022-10-22T10:16:59;26.10;97.30
5346;DHT22;2695;49.444;11.054;2022-10-22T10:19:43;25.90;97.60
5346;DHT22;2695;49.444;11.054;2022-10-22T10:22:23;26.30;96.70
5346;DHT22;2695;49.444;11.054;2022-10-22T10:25:02;26.70;96.40
5346;DHT22;2695;49.444;11.054;2022-10-22T10:27:39;27.10;94.80
5346;DHT22;2695;49.444;11.054;2022-10-22T10:30:10;27.20;94.50
5346;DHT22;2695;49.444;11.054;2022-10-22T10:33:01;27.00;93.70
5346;DHT22;2695;49.444;11.054;2022-10-22T10:35:41;25.80;94.90
5346;DHT22;2695;49.444;11.054;2022-10-22T10:38:24;25.00;96.90
5346;DHT22;2695;49.444;11.054;2022-10-22T10:41:02;25.20;97.10
5346;DHT22;2695;49.444;11.054;2022-10-22T10:43:42;25.80;96.10
5346;DHT22;2695;49.444;11.054;2022-10-22T10:46:24;26.30;95.30
5346;DHT22;2695;49.444;11.054;2022-10-22T10:48:59;26.60;94.60
5346;DHT22;2695;49.444;11.054;2022-10-22T10:51:37;26.70;94.00
5346;DHT22;2695;49.444;11.054;2022-10-22T10:54:39;27.10;93.30
5346;DHT22;2695;49.444;11.054;2022-10-22T10:57:15;27.00;92.70
5346;DHT22;2695;49.444;11.054;2022-10-22T10:59:54;26.80;92.80
5346;DHT22;2695;49.444;11.054;2022-10-22T11:02:50;26.40;93.00
5346;DHT22;2695;49.444;11.054;2022-10-22T11:05:33;25.60;94.10
5346;DHT22;2695;49.444;11.054;2022-10-22T11:08:12;24.70;95.20
5346;DHT22;2695;49.444;11.054;2022-10-22T11:10:44;23.90;96.80
5346;DHT22;2695;49.444;11.054;2022-10-22T11:13:20;23.40;97.80
5346;DHT22;2695;49.444;11.054;2022-10-22T11:15:56;23.10;98.60
5346;DHT22;2695;49.444;11.054;2022-10-22T11:18:31;23.00;99.50
5346;DHT22;2695;49.444;11.054;2022-10-22T11:21:17;23.60;98.90
5346;DHT22;2695;49.444;11.054;2022-10-22T11:23:54;24.20;97.70
5346;DHT22;2695;49.444;11.054;2022-10-22T11:26:34;23.90;97.90
5346;DHT22;2695;49.444;11.054;2022-10-22T11:29:10;23.30;98.70
5346;DHT22;2695;49.444;11.054;2022-10-22T11:31:40;22.90;99.50
5346;DHT22;2695;49.444;11.054;2022-10-22T11:34:15;22.60;99.90
5346;DHT22;2695;49.444;11.054;2022-10-22T11:37:02;22.40;99.90
5346;DHT22;2695;49.444;11.054;2022-10-22T11:39:38;22.30;99.90
5346;DHT22;2695;49.444;11.054;2022-10-22T11:42:10;22.10;99.90
5346;DHT22;2695;49.444;11.054;2022-10-22T11:44:47;22.20;99.90
5346;DHT22;2695;49.444;11.054;2022-10-22T11:47:18;22.80;99.90
5346;DHT22;2695;49.444;11.054;2022-10-22T11:49:55;23.00;99.90
5346;DHT22;2695;49.444;11.054;2022-10-22T11:52:36;23.00;99.90
5346;DHT22;2695;49.444;11.054;2022-10-22T11:55:41;22.70;99.90
5346;DHT22;2695;49.444;11.054;2022-10-22T11:58:38;22.40;99.90
5346;DHT22;2695;49.444;11.054;2022-10-22T12:01:41;22.10;99.90
5346;DHT22;2695;49.444;11.054;2022-10-22T12:04:21;21.80;99.90
5346;DHT22;2695;49.444;11.054;2022-10-22T12:06:57;21.90;99.90
5346;DHT22;2695;49.444;11.054;2022-10-22T12:09:27;21.90;99.90
5346;DHT22;2695;49.444;11.054;2022-10-22T12:12:12;21.70;99.90
5346;DHT22;2695;49.444;11.054;2022-10-22T12:14:55;21.50;99.90
5346;DHT22;2695;49.444;11.054;2022-10-22T12:17:27;21.30;99.90
5346;DHT22;2695;49.444;11.054;2022-10-22T12:19:59;21.30;99.90
5346;DHT22;2695;49.444;11.054;2022-10-22T12:22:30;21.50;99.90
5346;DHT22;2695;49.444;11.054;2022-10-22T12:25:09;21.70;99.90
5346;DHT22;2695;49.444;11.054;2022-10-22T12:27:41;21.70;99.90
5346;DHT22;2695;49.444;11.054;2022-10-22T12:30:17;21.60;99.90
5346;DHT22;2695;49.444;11.054;2022-10-22T12:32:47;21.50;99.90
5346;DHT22;2695;49.444;11.054;2022-10-22T12:35:17;21.40;99.90
5346;DHT22;2695;49.444;11.054;2022-10-22T12:37:49;21.30;99.90
5346;DHT22;2695;49.444;11.054;2022-10-22T12:40:27;21.30;99.90
5346;DHT22;2695;49.444;11.054;2022-10-22T12:43:17;21.40;99.90
5346;DHT22;2695;49.444;11.054;2022-10-22T12:45:47;21.40;99.90
5346;DHT22;2695;49.444;11.054;2022-10-22T12:48:18;21.50;99.90
5346;DHT22;2695;49.444;11.054;2022-10-22T12:50:51;21.70;99.90
5346;DHT22;2695;49.444;11.054;2022-10-22T12:53:26;21.80;99.90
5346;DHT22;2695;49.444;11.054;2022-10-22T12:55:59;21.80;99.90
5346;DHT22;2695;49.444;11.054;2022-10-22T12:58:38;21.70;99.90
5346;DHT22;2695;49.444;11.054;2022-10-22T13:01:09;21.80;99.90
5346;DHT22;2695;49.444;11.054;2022-10-22T13:03:40;21.80;99.90
5346;DHT22;2695;49.444;11.054;2022-10-22T13:06:12;21.70;99.90
5346;DHT22;2695;49.444;11.054;2022-10-22T13:08:44;21.60;99.90
5346;DHT22;2695;49.444;11.054;2022-10-22T13:11:19;21.70;99.90
5346;DHT22;2695;49.444;11.054;2022-10-22T13:13:49;21.60;99.90
5346;DHT22;2695;49.444;11.054;2022-10-22T13:16:20;21.50;99.90
5346;DHT22;2695;49.444;11.054;2022-10-22T13:18:51;21.30;99.90
5346;DHT22;2695;49.444;11.054;2022-10-22T13:21:26;21.20;99.90
5346;DHT22;2695;49.444;11.054;2022-10-22T13:23:57;21.20;99.90
5346;DHT22;2695;49.444;11.054;2022-10-22T13:26:32;21.20;99.90
5346;DHT22;2695;49.444;11.054;2022-10-22T13:29:09;21.20;99.90
5346;DHT22;2695;49.444;11.054;2022-10-22T13:31:45;21.10;99.90
5346;DHT22;2695;49.444;11.054;2022-10-22T13:34:17;21.10;99.90
5346;DHT22;2695;49.444;11.054;2022-10-22T13:36:50;21.00;99.90
5346;DHT22;2695;49.444;11.054;2022-10-22T13:39:23;20.80;99.90
5346;DHT22;2695;49.444;11.054;2022-10-22T13:41:52;20.70;99.90
5346;DHT22;2695;49.444;11.054;2022-10-22T13:44:22;20.60;99.90
5346;DHT22;2695;49.444;11.054;2022-10-22T13:46:50;20.50;99.90
5346;DHT22;2695;49.444;11.054;2022-10-22T13:49:22;20.50;99.90
5346;DHT22;2695;49.444;11.054;2022-10-22T13:51:51;20.40;99.90
5346;DHT22;2695;49.444;11.054;2022-10-22T13:54:21;20.30;99.90
5346;DHT22;2695;49.444;11.054;2022-10-22T13:56:52;20.30;99.90
5346;DHT22;2695;49.444;11.054;2022-10-22T13:59:24;20.20;99.90
5346;DHT22;2695;49.444;11.054;2022-10-22T14:02:00;20.10;99.90
5346;DHT22;2695;49.444;11.054;2022-10-22T14:16:53;19.90;99.90
5346;DHT22;2695;49.444;11.054;2022-10-22T14:19:21;20.00;99.90
5346;DHT22;2695;49.444;11.054;2022-10-22T14:21:58;19.90;99.90
5346;DHT22;2695;49.444;11.054;2022-10-22T14:24:31;19.80;99.90
5346;DHT22;2695;49.444;11.054;2022-10-22T14:26:59;19.90;99.90
5346;DHT22;2695;49.444;11.054;2022-10-22T14:29:28;19.80;99.90
5346;DHT22;2695;49.444;11.054;2022-10-22T14:32:00;19.80;99.90
5346;DHT22;2695;49.444;11.054;2022-10-22T14:34:29;19.70;99.90
5346;DHT22;2695;49.444;11.054;2022-10-22T14:36:57;19.70;99.90
5346;DHT22;2695;49.444;11.054;2022-10-22T14:39:28;19.70;99.90
5346;DHT22;2695;49.444;11.054;2022-10-22T14:41:59;19.60;99.90
5346;DHT22;2695;49.444;11.054;2022-10-22T14:44:29;19.60;99.90
5346;DHT22;2695;49.444;11.054;2022-10-22T14:47:01;19.60;99.90
5346;DHT22;2695;49.444;11.054;2022-10-22T14:49:34;19.60;99.90
5346;DHT22;2695;49.444;11.054;2022-10-22T14:52:05;19.60;99.90
5346;DHT22;2695;49.444;11.054;2022-10-22T14:54:38;19.50;99.90
5346;DHT22;2695;49.444;11.054;2022-10-22T14:57:06;19.50;99.90
5346;DHT22;2695;49.444;11.054;2022-10-22T14:59:37;19.40;99.90
5346;DHT22;2695;49.444;11.054;2022-10-22T15:02:09;19.40;99.90
5346;DHT22;2695;49.444;11.054;2022-10-22T15:04:47;19.30;99.90
5346;DHT22;2695;49.444;11.054;2022-10-22T15:07:16;19.30;99.90
5346;DHT22;2695;49.444;11.054;2022-10-22T15:09:48;19.30;99.90
5346;DHT22;2695;49.444;11.054;2022-10-22T15:12:21;19.20;99.90
5346;DHT22;2695;49.444;11.054;2022-10-22T15:14:49;19.10;99.90
5346;DHT22;2695;49.444;11.054;2022-10-22T15:17:18;19.10;99.90
5346;DHT22;2695;49.444;11.054;2022-10-22T15:19:47;19.10;99.90
5346;DHT22;2695;49.444;11.054;2022-10-22T15:22:15;19.00;99.90
5346;DHT22;2695;49.444;11.054;2022-10-22T15:24:43;19.00;99.90
5346;DHT22;2695;49.444;11.054;2022-10-22T15:27:11;19.00;99.90
5346;DHT22;2695;49.444;11.054;2022-10-22T15:29:41;19.00;99.90
5346;DHT22;2695;49.444;11.054;2022-10-22T15:32:09;19.10;99.90
5346;DHT22;2695;49.444;11.054;2022-10-22T15:34:42;19.10;99.90
5346;DHT22;2695;49.444;11.054;2022-10-22T15:37:11;19.10;99.90
5346;DHT22;2695;49.444;11.054;2022-10-22T15:39:40;19.10;99.90
5346;DHT22;2695;49.444;11.054;2022-10-22T15:42:09;19.00;99.90
5346;DHT22;2695;49.444;11.054;2022-10-22T15:44:37;19.00;99.90
5346;DHT22;2695;49.444;11.054;2022-10-22T15:47:11;18.90;99.90
5346;DHT22;2695;49.444;11.054;2022-10-22T15:49:48;18.80;99.90
5346;DHT22;2695;49.444;11.054;2022-10-22T15:52:20;18.80;99.90
5346;DHT22;2695;49.444;11.054;2022-10-22T15:54:52;18.70;99.90
5346;DHT22;2695;49.444;11.054;2022-10-22T15:57:26;18.60;99.90
5346;DHT22;2695;49.444;11.054;2022-10-22T15:59:55;18.50;99.90
5346;DHT22;2695;49.444;11.054;2022-10-22T16:02:24;18.50;99.90
5346;DHT22;2695;49.444;11.054;2022-10-22T16:04:53;18.50;99.90
5346;DHT22;2695;49.444;11.054;2022-10-22T16:07:21;18.40;99.90
5346;DHT22;2695;49.444;11.054;2022-10-22T16:09:54;18.30;99.90
5346;DHT22;2695;49.444;11.054;2022-10-22T16:12:22;18.30;99.90
5346;DHT22;2695;49.444;11.054;2022-10-22T16:14:51;18.30;99.90
5346;DHT22;2695;49.444;11.054;2022-10-22T16:17:19;18.30;99.90
5346;DHT22;2695;49.444;11.054;2022-10-22T16:19:48;18.30;99.90
5346;DHT22;2695;49.444;11.054;2022-10-22T16:22:17;18.30;99.90
5346;DHT22;2695;49.444;11.054;2022-10-22T16:24:45;18.30;99.90
5346;DHT22;2695;49.444;11.054;2022-10-22T16:27:13;18.30;99.90
5346;DHT22;2695;49.444;11.054;2022-10-22T16:29:42;18.30;99.90
5346;DHT22;2695;49.444;11.054;2022-10-22T16:32:10;18.20;99.90
5346;DHT22;2695;49.444;11.054;2022-10-22T16:34:39;18.20;99.90
5346;DHT22;2695;49.444;11.054;2022-10-22T16:37:07;18.20;99.90
5346;DHT22;2695;49.444;11.054;2022-10-22T16:39:37;18.20;99.90
5346;DHT22;2695;49.444;11.054;2022-10-22T16:42:06;18.20;99.90